createdAt,value
2019-05-06T00:00:05.158Z,77.86
2019-05-06T00:00:35.250Z,78.25
2019-05-06T00:01:05.168Z,78.23
2019-05-06T00:01:35.218Z,78.39
2019-05-06T00:02:05.211Z,78.38
2019-05-06T00:02:35.204Z,78.04
2019-05-06T00:03:06.188Z,78.01
2019-05-06T00:03:35.223Z,78.11
2019-05-06T00:04:05.158Z,78.32
2019-05-06T00:04:35.211Z,78.52
2019-05-06T00:05:05.152Z,78.72
2019-05-06T00:05:35.220Z,78.97
2019-05-06T00:06:05.226Z,79.25
2019-05-06T00:06:35.232Z,79.37
2019-05-06T00:07:05.326Z,79.13
2019-05-06T00:07:37.254Z,78.95
2019-05-06T00:08:05.191Z,78.91
2019-05-06T00:08:35.216Z,79.23
2019-05-06T00:09:04.152Z,79.35
2019-05-06T00:09:35.217Z,79.46
2019-05-06T00:10:06.178Z,79.52
2019-05-06T00:10:35.220Z,79.59
2019-05-06T00:11:05.170Z,79.55
2019-05-06T00:11:35.216Z,79.55
2019-05-06T00:12:05.163Z,79.69
2019-05-06T00:12:34.197Z,79.87
2019-05-06T00:13:05.161Z,79.89
2019-05-06T00:13:35.216Z,79.84
2019-05-06T00:14:05.158Z,79.61
2019-05-06T00:14:34.210Z,79.40
2019-05-06T00:15:05.154Z,79.16
2019-05-06T00:15:35.230Z,78.82
2019-05-06T00:16:05.174Z,79.11
2019-05-06T00:16:35.261Z,79.29
2019-05-06T00:17:05.162Z,79.22
2019-05-06T00:17:35.223Z,79.02
2019-05-06T00:18:07.243Z,78.89
2019-05-06T00:18:35.242Z,78.80
2019-05-06T00:19:05.171Z,79.06
2019-05-06T00:19:35.219Z,79.38
2019-05-06T00:20:05.160Z,79.50
2019-05-06T00:20:35.216Z,79.30
2019-05-06T00:21:05.165Z,79.04
2019-05-06T00:21:36.232Z,79.06
2019-05-06T00:22:05.158Z,78.99
2019-05-06T00:22:35.233Z,78.94
2019-05-06T00:23:05.162Z,78.75
2019-05-06T00:23:38.150Z,78.60
2019-05-06T00:24:05.162Z,78.38
2019-05-06T00:24:35.224Z,78.08
2019-05-06T00:25:06.284Z,78.06
2019-05-06T00:25:35.225Z,78.40
2019-05-06T00:26:05.164Z,78.45
2019-05-06T00:26:35.218Z,78.30
2019-05-06T00:27:05.179Z,78.17
2019-05-06T00:27:35.225Z,77.99
2019-05-06T00:28:06.325Z,78.16
2019-05-06T00:28:37.607Z,78.34
2019-05-06T00:29:05.180Z,77.84
2019-05-06T00:29:35.219Z,76.88
2019-05-06T00:30:05.165Z,76.38
2019-05-06T00:30:35.223Z,76.19
2019-05-06T00:31:12.305Z,76.13
2019-05-06T00:31:35.227Z,75.82
2019-05-06T00:32:05.164Z,75.90
2019-05-06T00:32:35.225Z,76.19
2019-05-06T00:33:05.188Z,76.25
2019-05-06T00:33:35.225Z,76.41
2019-05-06T00:34:05.158Z,75.82
2019-05-06T00:34:35.223Z,75.32
2019-05-06T00:35:05.163Z,75.54
2019-05-06T00:35:35.223Z,75.72
2019-05-06T00:36:05.160Z,75.90
2019-05-06T00:36:35.221Z,76.26
2019-05-06T00:37:04.174Z,76.36
2019-05-06T00:37:35.228Z,76.44
2019-05-06T00:38:05.171Z,76.58
2019-05-06T00:38:35.219Z,76.72
2019-05-06T00:39:07.339Z,76.52
2019-05-06T00:39:34.296Z,76.36
2019-05-06T00:40:05.172Z,75.98
2019-05-06T00:40:35.221Z,75.89
2019-05-06T00:41:05.188Z,75.66
2019-05-06T00:41:36.676Z,75.90
2019-05-06T00:42:04.157Z,76.25
2019-05-06T00:42:35.229Z,76.35
2019-05-06T00:43:05.170Z,76.51
2019-05-06T00:43:35.278Z,76.53
2019-05-06T00:44:05.168Z,76.70
2019-05-06T00:44:35.226Z,76.96
2019-05-06T00:45:05.176Z,77.13
2019-05-06T00:45:35.270Z,77.15
2019-05-06T00:46:05.173Z,77.30
2019-05-06T00:46:35.223Z,77.37
2019-05-06T00:47:05.166Z,77.30
2019-05-06T00:47:35.235Z,77.44
2019-05-06T00:48:05.172Z,77.32
2019-05-06T00:48:35.222Z,76.97
2019-05-06T00:49:05.161Z,76.98
2019-05-06T00:49:37.530Z,77.12
2019-05-06T00:50:05.161Z,77.12
2019-05-06T00:50:35.217Z,76.77
2019-05-06T00:51:05.166Z,76.45
2019-05-06T00:51:34.220Z,76.62
2019-05-06T00:52:05.160Z,76.72
2019-05-06T00:52:35.249Z,76.70
2019-05-06T00:53:05.163Z,76.85
2019-05-06T00:53:35.235Z,76.99
2019-05-06T00:54:05.305Z,77.01
2019-05-06T00:54:35.218Z,77.00
2019-05-06T00:55:05.169Z,76.89
2019-05-06T00:55:34.214Z,76.75
2019-05-06T00:56:05.278Z,77.09
2019-05-06T00:56:35.228Z,77.33
2019-05-06T00:57:04.152Z,77.24
2019-05-06T00:57:34.207Z,77.34
2019-05-06T00:58:05.243Z,77.28
2019-05-06T00:58:35.227Z,77.09
2019-05-06T00:59:04.150Z,76.99
2019-05-06T00:59:35.233Z,77.17
2019-05-06T01:00:07.308Z,77.35
2019-05-06T01:00:34.214Z,77.55
2019-05-06T01:01:05.168Z,77.79
2019-05-06T01:01:35.229Z,77.87
2019-05-06T01:02:05.178Z,77.94
2019-05-06T01:02:35.365Z,77.98
2019-05-06T01:03:05.166Z,77.91
2019-05-06T01:03:35.229Z,77.74
2019-05-06T01:04:05.208Z,77.71
2019-05-06T01:04:34.215Z,77.82
2019-05-06T01:05:05.162Z,77.77
2019-05-06T01:05:34.211Z,77.63
2019-05-06T01:06:05.169Z,77.67
2019-05-06T01:06:35.237Z,77.77
2019-05-06T01:07:04.160Z,77.94
2019-05-06T01:07:35.228Z,77.94
2019-05-06T01:08:05.170Z,78.04
2019-05-06T01:08:35.269Z,78.03
2019-05-06T01:09:05.169Z,77.81
2019-05-06T01:09:35.223Z,77.68
2019-05-06T01:10:04.158Z,77.77
2019-05-06T01:10:37.530Z,77.98
2019-05-06T01:11:05.169Z,78.15
2019-05-06T01:11:35.230Z,78.28
2019-05-06T01:12:04.158Z,78.54
2019-05-06T01:12:35.250Z,78.57
2019-05-06T01:13:05.167Z,78.72
2019-05-06T01:13:36.239Z,78.90
2019-05-06T01:14:05.181Z,78.81
2019-05-06T01:14:36.245Z,78.93
2019-05-06T01:15:04.158Z,79.08
2019-05-06T01:15:35.221Z,79.10
2019-05-06T01:16:05.172Z,79.09
2019-05-06T01:16:35.228Z,79.11
2019-05-06T01:17:04.161Z,79.24
2019-05-06T01:17:34.213Z,79.23
2019-05-06T01:18:05.175Z,79.39
2019-05-06T01:18:35.235Z,79.38
2019-05-06T01:19:05.170Z,79.44
2019-05-06T01:19:35.237Z,79.47
2019-05-06T01:20:05.162Z,79.33
2019-05-06T01:20:34.221Z,79.15
2019-05-06T01:21:07.403Z,79.08
2019-05-06T01:21:35.241Z,79.40
2019-05-06T01:22:05.167Z,79.65
2019-05-06T01:22:35.231Z,79.73
2019-05-06T01:23:04.240Z,79.63
2019-05-06T01:23:35.234Z,79.40
2019-05-06T01:24:05.172Z,79.36
2019-05-06T01:24:35.233Z,79.40
2019-05-06T01:25:04.211Z,79.65
2019-05-06T01:25:35.223Z,79.80
2019-05-06T01:26:05.171Z,79.88
2019-05-06T01:26:34.216Z,80.03
2019-05-06T01:27:05.232Z,79.99
2019-05-06T01:27:34.219Z,80.02
2019-05-06T01:28:05.171Z,80.03
2019-05-06T01:28:35.226Z,79.95
2019-05-06T01:29:05.180Z,80.02
2019-05-06T01:29:35.242Z,80.14
2019-05-06T01:30:05.185Z,80.08
2019-05-06T01:30:34.219Z,79.95
2019-05-06T01:31:05.375Z,79.89
2019-05-06T01:31:43.163Z,79.91
2019-05-06T01:32:04.169Z,80.05
2019-05-06T01:32:35.234Z,80.05
2019-05-06T01:33:05.177Z,79.98
2019-05-06T01:33:35.354Z,79.84
2019-05-06T01:34:05.176Z,79.91
2019-05-06T01:34:35.257Z,80.16
2019-05-06T01:35:05.176Z,80.35
2019-05-06T01:35:36.255Z,80.31
2019-05-06T01:36:05.169Z,80.40
2019-05-06T01:36:35.233Z,80.38
2019-05-06T01:37:04.163Z,80.41
2019-05-06T01:37:35.244Z,80.48
2019-05-06T01:38:04.161Z,80.54
2019-05-06T01:38:35.229Z,80.64
2019-05-06T01:39:05.175Z,80.45
2019-05-06T01:39:35.240Z,80.42
2019-05-06T01:40:05.179Z,80.36
2019-05-06T01:40:35.225Z,80.38
2019-05-06T01:41:05.175Z,80.54
2019-05-06T01:41:34.224Z,80.65
2019-05-06T01:42:07.777Z,80.68
2019-05-06T01:42:35.237Z,80.52
2019-05-06T01:43:04.167Z,80.53
2019-05-06T01:43:35.239Z,80.75
2019-05-06T01:44:05.188Z,80.83
2019-05-06T01:44:34.215Z,80.81
2019-05-06T01:45:05.183Z,80.72
2019-05-06T01:45:35.240Z,80.65
2019-05-06T01:46:05.211Z,80.64
2019-05-06T01:46:35.235Z,80.87
2019-05-06T01:47:04.163Z,80.94
2019-05-06T01:47:35.238Z,81.09
2019-05-06T01:48:05.218Z,81.22
2019-05-06T01:48:34.215Z,81.22
2019-05-06T01:49:05.186Z,81.08
2019-05-06T01:49:35.237Z,81.13
2019-05-06T01:50:05.409Z,81.00
2019-05-06T01:50:35.236Z,80.87
2019-05-06T01:51:04.166Z,80.85
2019-05-06T01:51:35.238Z,81.08
2019-05-06T01:52:05.203Z,81.12
2019-05-06T01:52:37.792Z,81.12
2019-05-06T01:53:05.351Z,81.25
2019-05-06T01:53:34.223Z,81.36
2019-05-06T01:54:05.177Z,81.33
2019-05-06T01:54:35.237Z,81.28
2019-05-06T01:55:05.185Z,81.17
2019-05-06T01:55:35.240Z,81.12
2019-05-06T01:56:04.191Z,81.10
2019-05-06T01:56:34.214Z,81.08
2019-05-06T01:57:05.173Z,81.17
2019-05-06T01:57:34.219Z,81.34
2019-05-06T01:58:06.193Z,81.43
2019-05-06T01:58:34.328Z,81.38
2019-05-06T01:59:05.189Z,81.25
2019-05-06T01:59:35.239Z,81.19
2019-05-06T02:00:05.176Z,81.27
2019-05-06T02:00:35.283Z,81.42
2019-05-06T02:01:05.184Z,81.58
2019-05-06T02:01:35.257Z,81.74
2019-05-06T02:02:05.195Z,81.73
2019-05-06T02:02:35.266Z,81.75
2019-05-06T02:03:07.290Z,81.73
2019-05-06T02:03:35.246Z,81.67
2019-05-06T02:04:05.182Z,81.97
2019-05-06T02:04:34.264Z,81.97
2019-05-06T02:05:05.190Z,81.89
2019-05-06T02:05:34.224Z,81.79
2019-05-06T02:06:05.189Z,81.75
2019-05-06T02:06:35.263Z,81.89
2019-05-06T02:07:05.183Z,81.93
2019-05-06T02:07:35.234Z,82.04
2019-05-06T02:08:05.175Z,82.18
2019-05-06T02:08:34.226Z,82.17
2019-05-06T02:09:05.182Z,82.27
2019-05-06T02:09:35.252Z,82.31
2019-05-06T02:10:05.183Z,82.30
2019-05-06T02:10:38.157Z,82.19
2019-05-06T02:11:05.184Z,82.18
2019-05-06T02:11:34.228Z,82.31
2019-05-06T02:12:05.195Z,82.24
2019-05-06T02:12:35.238Z,82.17
2019-05-06T02:13:04.169Z,82.24
2019-05-06T02:13:37.217Z,82.31
2019-05-06T02:14:05.340Z,82.33
2019-05-06T02:14:35.259Z,82.40
2019-05-06T02:15:05.196Z,82.27
2019-05-06T02:15:35.293Z,82.24
2019-05-06T02:16:04.181Z,82.33
2019-05-06T02:16:35.250Z,82.37
2019-05-06T02:17:04.260Z,82.33
2019-05-06T02:17:35.241Z,82.46
2019-05-06T02:18:05.185Z,82.46
2019-05-06T02:18:34.234Z,82.50
2019-05-06T02:19:05.207Z,82.56
2019-05-06T02:19:35.250Z,82.53
2019-05-06T02:20:05.182Z,82.54
2019-05-06T02:20:35.246Z,82.52
2019-05-06T02:21:06.196Z,82.67
2019-05-06T02:21:34.228Z,82.78
2019-05-06T02:22:05.181Z,82.80
2019-05-06T02:22:35.251Z,82.77
2019-05-06T02:23:05.179Z,82.84
2019-05-06T02:23:34.236Z,82.91
2019-05-06T02:24:07.217Z,83.02
2019-05-06T02:24:34.220Z,83.11
2019-05-06T02:25:05.187Z,83.16
2019-05-06T02:25:35.307Z,83.04
2019-05-06T02:26:05.188Z,82.91
2019-05-06T02:26:35.240Z,82.85
2019-05-06T02:27:05.185Z,82.81
2019-05-06T02:27:35.254Z,82.83
2019-05-06T02:28:05.181Z,82.92
2019-05-06T02:28:35.246Z,82.99
2019-05-06T02:29:05.185Z,83.02
2019-05-06T02:29:35.268Z,83.03
2019-05-06T02:30:06.206Z,83.06
2019-05-06T02:30:36.740Z,83.12
2019-05-06T02:31:06.198Z,83.06
2019-05-06T02:31:36.257Z,82.91
2019-05-06T02:32:20.669Z,82.82
2019-05-06T02:33:05.188Z,82.69
2019-05-06T02:33:36.260Z,82.72
2019-05-06T02:34:06.196Z,82.68
2019-05-06T02:34:37.430Z,82.50
2019-05-06T02:35:06.199Z,82.56
2019-05-06T02:35:35.258Z,82.72
2019-05-06T02:36:06.655Z,82.73
2019-05-06T02:36:35.269Z,82.82
2019-05-06T02:37:06.548Z,82.73
2019-05-06T02:37:36.266Z,82.62
2019-05-06T02:38:05.246Z,82.75
2019-05-06T02:38:46.368Z,82.79
2019-05-06T02:39:04.167Z,82.70
2019-05-06T02:39:35.245Z,82.67
2019-05-06T02:40:05.216Z,82.71
2019-05-06T02:40:34.237Z,82.84
2019-05-06T02:41:04.170Z,82.79
2019-05-06T02:41:34.235Z,82.75
2019-05-06T02:42:05.246Z,82.75
2019-05-06T02:42:34.230Z,82.77
2019-05-06T02:43:04.175Z,82.94
2019-05-06T02:43:35.257Z,83.12
2019-05-06T02:44:04.253Z,83.13
2019-05-06T02:44:34.267Z,83.17
2019-05-06T02:45:07.357Z,83.14
2019-05-06T02:45:34.237Z,83.07
2019-05-06T02:46:05.231Z,83.03
2019-05-06T02:46:34.246Z,83.09
2019-05-06T02:47:04.174Z,83.11
2019-05-06T02:47:35.244Z,83.07
2019-05-06T02:48:05.193Z,82.86
2019-05-06T02:48:34.233Z,82.81
2019-05-06T02:49:05.184Z,82.78
2019-05-06T02:49:34.232Z,82.86
2019-05-06T02:50:05.184Z,83.06
2019-05-06T02:50:34.337Z,83.20
2019-05-06T02:51:05.190Z,83.21
2019-05-06T02:51:34.236Z,83.08
2019-05-06T02:52:04.174Z,83.13
2019-05-06T02:52:34.302Z,83.17
2019-05-06T02:53:04.173Z,83.15
2019-05-06T02:53:34.226Z,83.12
2019-05-06T02:54:04.181Z,83.28
2019-05-06T02:54:35.273Z,83.31
2019-05-06T02:55:06.555Z,83.36
2019-05-06T02:55:37.349Z,83.38
2019-05-06T02:56:05.195Z,83.45
2019-05-06T02:56:34.253Z,83.40
2019-05-06T02:57:05.192Z,83.49
2019-05-06T02:57:34.371Z,83.47
2019-05-06T02:58:04.188Z,83.62
2019-05-06T02:58:34.237Z,83.65
2019-05-06T02:59:05.314Z,83.67
2019-05-06T02:59:34.227Z,83.64
2019-05-06T03:00:06.384Z,83.67
2019-05-06T03:00:34.235Z,83.72
2019-05-06T03:01:05.191Z,83.69
2019-05-06T03:01:35.302Z,83.67
2019-05-06T03:02:04.177Z,83.70
2019-05-06T03:02:43.177Z,83.82
2019-05-06T03:03:04.176Z,83.87
2019-05-06T03:03:35.259Z,83.96
2019-05-06T03:04:05.195Z,84.00
2019-05-06T03:04:34.228Z,83.99
2019-05-06T03:05:05.351Z,84.02
2019-05-06T03:05:34.230Z,84.13
2019-05-06T03:06:07.281Z,84.14
2019-05-06T03:06:34.237Z,84.22
2019-05-06T03:07:04.253Z,84.34
2019-05-06T03:07:37.710Z,84.31
2019-05-06T03:08:04.174Z,84.34
2019-05-06T03:08:34.233Z,84.31
2019-05-06T03:09:04.222Z,84.36
2019-05-06T03:09:35.251Z,84.45
2019-05-06T03:10:05.197Z,84.54
2019-05-06T03:10:34.229Z,84.53
2019-05-06T03:11:05.259Z,84.62
2019-05-06T03:11:34.234Z,84.66
2019-05-06T03:12:05.203Z,84.77
2019-05-06T03:12:34.233Z,84.88
2019-05-06T03:13:04.217Z,84.89
2019-05-06T03:13:35.260Z,84.95
2019-05-06T03:14:04.175Z,84.96
2019-05-06T03:14:35.262Z,85.03
2019-05-06T03:15:04.189Z,85.02
2019-05-06T03:15:35.335Z,85.11
2019-05-06T03:16:06.216Z,85.19
2019-05-06T03:16:37.196Z,85.30
2019-05-06T03:17:05.203Z,85.36
2019-05-06T03:17:34.376Z,85.48
2019-05-06T03:18:04.178Z,85.60
2019-05-06T03:18:34.329Z,85.69
2019-05-06T03:19:05.747Z,85.69
2019-05-06T03:19:35.338Z,85.73
2019-05-06T03:20:05.217Z,85.79
2019-05-06T03:20:36.305Z,85.83
2019-05-06T03:21:05.203Z,85.90
2019-05-06T03:22:04.190Z,85.97
2019-05-06T03:22:35.281Z,85.86
2019-05-06T03:23:05.358Z,85.88
2019-05-06T03:23:36.303Z,85.93
2019-05-06T03:24:07.301Z,85.94
2019-05-06T03:24:34.245Z,85.98
2019-05-06T03:25:07.012Z,86.06
2019-05-06T03:25:34.246Z,86.03
2019-05-06T03:26:06.928Z,86.01
2019-05-06T03:26:34.233Z,86.01
2019-05-06T03:27:07.221Z,86.06
2019-05-06T03:27:34.263Z,86.09
2019-05-06T03:28:05.192Z,86.11
2019-05-06T03:28:34.242Z,86.14
2019-05-06T03:29:04.177Z,86.06
2019-05-06T03:29:34.263Z,86.08
2019-05-06T03:30:05.196Z,86.08
2019-05-06T03:30:36.709Z,86.10
2019-05-06T03:31:07.641Z,86.18
2019-05-06T03:31:36.791Z,86.19
2019-05-06T03:32:07.611Z,86.14
2019-05-06T03:32:41.744Z,86.11
2019-05-06T03:33:39.829Z,86.06
2019-05-06T03:33:54.869Z,85.99
2019-05-06T03:34:24.214Z,86.07
2019-05-06T03:34:56.872Z,86.13
2019-05-06T03:35:24.462Z,86.14
2019-05-06T03:35:51.874Z,86.10
2019-05-06T03:36:16.239Z,86.10
2019-05-06T03:36:40.571Z,86.11
2019-05-06T03:37:08.002Z,86.15
2019-05-06T03:37:37.396Z,86.14
2019-05-06T03:38:05.263Z,86.25
2019-05-06T03:38:34.235Z,86.34
2019-05-06T03:39:04.185Z,86.38
2019-05-06T03:39:34.256Z,86.38
2019-05-06T03:40:05.351Z,86.34
2019-05-06T03:40:38.041Z,86.39
2019-05-06T03:41:04.177Z,86.43
2019-05-06T03:41:34.246Z,86.46
2019-05-06T03:42:05.203Z,86.50
2019-05-06T03:42:34.259Z,86.54
2019-05-06T03:43:04.179Z,86.56
2019-05-06T03:43:35.255Z,86.61
2019-05-06T03:44:04.183Z,86.61
2019-05-06T03:44:34.316Z,86.66
2019-05-06T03:45:05.207Z,86.67
2019-05-06T03:45:34.239Z,86.68
2019-05-06T03:46:05.211Z,86.69
2019-05-06T03:46:34.293Z,86.67
2019-05-06T03:47:06.213Z,86.70
2019-05-06T03:47:35.263Z,86.73
2019-05-06T03:48:07.400Z,86.70
2019-05-06T03:48:34.255Z,86.65
2019-05-06T03:49:04.207Z,86.65
2019-05-06T03:49:34.242Z,86.66
2019-05-06T03:50:05.209Z,86.69
2019-05-06T03:50:34.238Z,86.66
2019-05-06T03:51:05.204Z,86.59
2019-05-06T03:51:35.288Z,86.56
2019-05-06T03:52:04.195Z,86.71
2019-05-06T03:52:35.280Z,86.78
2019-05-06T03:53:04.180Z,86.79
2019-05-06T03:53:34.255Z,86.83
2019-05-06T03:54:04.192Z,86.89
2019-05-06T03:54:35.280Z,86.95
2019-05-06T03:55:05.197Z,86.97
2019-05-06T03:55:35.265Z,86.96
2019-05-06T03:56:04.179Z,87.06
2019-05-06T03:56:34.245Z,87.10
2019-05-06T03:57:04.188Z,87.12
2019-05-06T03:57:36.509Z,87.16
2019-05-06T03:58:05.199Z,87.14
2019-05-06T03:58:37.415Z,87.08
2019-05-06T03:59:04.210Z,87.07
2019-05-06T03:59:34.246Z,87.11
2019-05-06T04:00:05.382Z,87.14
2019-05-06T04:00:34.243Z,87.20
2019-05-06T04:01:04.278Z,87.21
2019-05-06T04:01:34.243Z,87.21
2019-05-06T04:02:06.255Z,87.22
2019-05-06T04:02:34.267Z,87.24
2019-05-06T04:03:04.189Z,87.26
2019-05-06T04:03:46.700Z,87.27
2019-05-06T04:04:04.213Z,87.22
2019-05-06T04:04:34.252Z,87.19
2019-05-06T04:05:05.203Z,87.22
2019-05-06T04:05:34.238Z,87.21
2019-05-06T04:06:05.215Z,87.20
2019-05-06T04:06:34.255Z,87.21
2019-05-06T04:07:04.231Z,87.20
2019-05-06T04:07:35.269Z,87.22
2019-05-06T04:08:05.216Z,87.18
2019-05-06T04:08:35.263Z,87.17
2019-05-06T04:09:07.179Z,87.17
2019-05-06T04:09:36.984Z,87.15
2019-05-06T04:10:05.211Z,87.18
2019-05-06T04:10:36.891Z,87.18
2019-05-06T04:11:04.186Z,87.17
2019-05-06T04:11:36.623Z,87.22
2019-05-06T04:12:04.195Z,87.25
2019-05-06T04:12:34.286Z,87.27
2019-05-06T04:13:05.205Z,87.36
2019-05-06T04:13:34.314Z,87.44
2019-05-06T04:14:04.185Z,87.49
2019-05-06T04:14:35.260Z,87.47
2019-05-06T04:15:05.202Z,87.39
2019-05-06T04:15:35.274Z,87.39
2019-05-06T04:16:05.205Z,87.35
2019-05-06T04:16:34.270Z,87.37
2019-05-06T04:17:04.182Z,87.25
2019-05-06T04:17:34.254Z,87.22
2019-05-06T04:18:05.201Z,87.13
2019-05-06T04:18:34.248Z,87.02
2019-05-06T04:19:05.204Z,86.87
2019-05-06T04:19:37.400Z,86.76
2019-05-06T04:20:05.216Z,86.65
2019-05-06T04:20:35.270Z,86.51
2019-05-06T04:21:08.686Z,86.30
2019-05-06T04:21:34.254Z,86.12
2019-05-06T04:22:04.327Z,85.91
2019-05-06T04:22:34.256Z,85.78
2019-05-06T04:23:06.685Z,85.65
2019-05-06T04:23:34.250Z,85.60
2019-05-06T04:24:05.284Z,85.45
2019-05-06T04:24:34.254Z,85.27
2019-05-06T04:25:05.208Z,85.20
2019-05-06T04:25:34.252Z,85.15
2019-05-06T04:26:04.292Z,85.13
2019-05-06T04:26:34.252Z,84.97
2019-05-06T04:27:04.192Z,84.91
2019-05-06T04:27:34.247Z,84.93
2019-05-06T04:28:04.310Z,84.89
2019-05-06T04:28:35.278Z,84.90
2019-05-06T04:29:05.203Z,84.89
2019-05-06T04:29:36.283Z,84.88
2019-05-06T04:30:07.270Z,84.91
2019-05-06T04:30:34.255Z,84.90
2019-05-06T04:31:04.188Z,84.91
2019-05-06T04:31:34.257Z,84.90
2019-05-06T04:32:04.195Z,84.84
2019-05-06T04:32:35.389Z,84.83
2019-05-06T04:33:04.194Z,84.81
2019-05-06T04:33:34.253Z,84.78
2019-05-06T04:34:13.720Z,84.74
2019-05-06T04:34:34.250Z,84.73
2019-05-06T04:35:05.218Z,84.75
2019-05-06T04:35:34.255Z,84.75
2019-05-06T04:36:04.194Z,84.79
2019-05-06T04:36:34.307Z,84.80
2019-05-06T04:37:04.198Z,84.79
2019-05-06T04:37:35.265Z,84.82
2019-05-06T04:38:04.194Z,84.80
2019-05-06T04:38:35.313Z,84.75
2019-05-06T04:39:05.210Z,84.63
2019-05-06T04:39:34.249Z,84.60
2019-05-06T04:40:05.226Z,84.66
2019-05-06T04:40:37.230Z,84.62
2019-05-06T04:41:04.197Z,84.53
2019-05-06T04:41:35.287Z,84.53
2019-05-06T04:42:04.197Z,84.59
2019-05-06T04:42:35.291Z,84.47
2019-05-06T04:43:04.195Z,84.41
2019-05-06T04:43:34.497Z,84.22
2019-05-06T04:44:04.224Z,84.17
2019-05-06T04:44:34.286Z,84.05
2019-05-06T04:45:05.215Z,84.05
2019-05-06T04:45:34.249Z,84.02
2019-05-06T04:46:04.190Z,83.91
2019-05-06T04:46:35.292Z,83.77
2019-05-06T04:47:06.326Z,83.70
2019-05-06T04:47:34.255Z,83.64
2019-05-06T04:48:04.189Z,83.66
2019-05-06T04:48:34.274Z,83.70
2019-05-06T04:49:05.315Z,83.78
2019-05-06T04:49:34.247Z,83.80
2019-05-06T04:50:06.244Z,83.97
2019-05-06T04:50:34.256Z,84.10
2019-05-06T04:51:07.304Z,84.09
2019-05-06T04:51:36.736Z,84.11
2019-05-06T04:52:04.199Z,84.14
2019-05-06T04:52:35.277Z,84.26
2019-05-06T04:53:06.263Z,84.32
2019-05-06T04:53:35.275Z,84.37
2019-05-06T04:54:05.209Z,84.47
2019-05-06T04:54:34.256Z,84.57
2019-05-06T04:55:05.247Z,84.63
2019-05-06T04:55:34.254Z,84.70
2019-05-06T04:56:05.222Z,84.74
2019-05-06T04:56:34.262Z,84.68
2019-05-06T04:57:06.230Z,84.64
2019-05-06T04:57:34.258Z,84.55
2019-05-06T04:58:05.232Z,84.59
2019-05-06T04:58:34.253Z,84.61
2019-05-06T04:59:06.674Z,84.66
2019-05-06T04:59:34.251Z,84.71
2019-05-06T05:00:05.216Z,84.80
2019-05-06T05:00:34.255Z,84.91
2019-05-06T05:01:05.213Z,85.01
2019-05-06T05:01:37.324Z,85.10
2019-05-06T05:02:04.196Z,85.17
2019-05-06T05:02:34.256Z,85.24
2019-05-06T05:03:04.199Z,85.31
2019-05-06T05:03:34.348Z,85.33
2019-05-06T05:04:14.534Z,85.25
2019-05-06T05:04:37.034Z,85.22
2019-05-06T05:05:05.231Z,85.31
2019-05-06T05:05:34.324Z,85.33
2019-05-06T05:06:06.227Z,85.46
2019-05-06T05:06:34.256Z,85.46
2019-05-06T05:07:04.196Z,85.49
2019-05-06T05:07:34.268Z,85.62
2019-05-06T05:08:04.210Z,85.69
2019-05-06T05:08:34.250Z,85.66
2019-05-06T05:09:04.200Z,85.78
2019-05-06T05:09:34.271Z,85.57
2019-05-06T05:10:04.201Z,85.15
2019-05-06T05:10:34.250Z,84.86
2019-05-06T05:11:04.203Z,84.78
2019-05-06T05:11:34.262Z,84.69
2019-05-06T05:12:07.170Z,84.75
2019-05-06T05:12:34.262Z,84.83
2019-05-06T05:13:04.225Z,84.83
2019-05-06T05:13:34.262Z,84.89
2019-05-06T05:14:04.196Z,84.86
2019-05-06T05:14:34.258Z,84.89
2019-05-06T05:15:04.191Z,84.85
2019-05-06T05:15:34.254Z,84.79
2019-05-06T05:16:04.199Z,84.96
2019-05-06T05:16:34.248Z,85.16
2019-05-06T05:17:04.193Z,85.26
2019-05-06T05:17:34.256Z,85.39
2019-05-06T05:18:04.220Z,85.52
2019-05-06T05:18:34.254Z,85.61
2019-05-06T05:19:04.205Z,85.58
2019-05-06T05:19:34.295Z,85.45
2019-05-06T05:20:04.292Z,85.34
2019-05-06T05:20:40.733Z,85.30
2019-05-06T05:21:04.194Z,85.30
2019-05-06T05:21:34.258Z,84.99
2019-05-06T05:22:04.226Z,84.97
2019-05-06T05:22:37.172Z,85.12
2019-05-06T05:23:04.200Z,85.26
2019-05-06T05:23:34.260Z,85.23
2019-05-06T05:24:04.282Z,85.17
2019-05-06T05:24:34.262Z,85.13
2019-05-06T05:25:04.201Z,85.04
2019-05-06T05:25:34.406Z,84.63
2019-05-06T05:26:04.235Z,84.24
2019-05-06T05:26:34.258Z,83.95
2019-05-06T05:27:04.201Z,83.85
2019-05-06T05:27:34.261Z,83.87
2019-05-06T05:28:04.206Z,83.83
2019-05-06T05:28:34.385Z,83.74
2019-05-06T05:29:04.192Z,83.51
2019-05-06T05:29:34.263Z,83.15
2019-05-06T05:30:04.200Z,83.01
2019-05-06T05:30:34.328Z,83.02
2019-05-06T05:31:04.196Z,83.09
2019-05-06T05:31:34.256Z,83.04
2019-05-06T05:32:04.201Z,83.02
2019-05-06T05:32:34.326Z,82.73
2019-05-06T05:33:07.194Z,82.47
2019-05-06T05:33:34.261Z,82.32
2019-05-06T05:34:04.208Z,82.21
2019-05-06T05:34:40.566Z,82.12
2019-05-06T05:35:04.243Z,82.18
2019-05-06T05:35:34.256Z,82.28
2019-05-06T05:36:04.201Z,82.49
2019-05-06T05:36:34.258Z,82.48
2019-05-06T05:37:04.204Z,82.48
2019-05-06T05:37:34.264Z,82.43
2019-05-06T05:38:04.207Z,82.29
2019-05-06T05:38:34.256Z,81.96
2019-05-06T05:39:04.207Z,81.71
2019-05-06T05:39:34.265Z,81.75
2019-05-06T05:40:04.221Z,81.62
2019-05-06T05:40:34.257Z,81.53
2019-05-06T05:41:04.202Z,81.37
2019-05-06T05:41:34.268Z,81.40
2019-05-06T05:42:04.203Z,81.34
2019-05-06T05:42:34.264Z,81.29
2019-05-06T05:43:04.200Z,81.25
2019-05-06T05:43:42.273Z,81.37
2019-05-06T05:44:04.203Z,81.44
2019-05-06T05:44:34.259Z,81.27
2019-05-06T05:45:04.213Z,81.04
2019-05-06T05:45:34.273Z,81.04
2019-05-06T05:46:04.196Z,80.97
2019-05-06T05:46:34.263Z,80.96
2019-05-06T05:47:04.350Z,81.08
2019-05-06T05:47:34.259Z,81.08
2019-05-06T05:48:04.214Z,80.83
2019-05-06T05:48:34.259Z,80.39
2019-05-06T05:49:04.212Z,80.13
2019-05-06T05:49:34.265Z,79.89
2019-05-06T05:50:04.207Z,79.47
2019-05-06T05:50:34.436Z,79.25
2019-05-06T05:51:04.213Z,79.35
2019-05-06T05:51:34.259Z,78.56
2019-05-06T05:52:04.207Z,78.11
2019-05-06T05:52:34.267Z,77.86
2019-05-06T05:53:04.225Z,77.75
2019-05-06T05:53:34.383Z,76.91
2019-05-06T05:54:07.357Z,76.69
2019-05-06T05:54:34.267Z,76.95
2019-05-06T05:55:04.214Z,76.99
2019-05-06T05:55:34.265Z,77.16
2019-05-06T05:56:04.213Z,77.25
2019-05-06T05:56:34.269Z,77.49
2019-05-06T05:57:04.211Z,77.63
2019-05-06T05:57:34.322Z,77.59
2019-05-06T05:58:04.207Z,77.22
2019-05-06T05:58:34.265Z,76.58
2019-05-06T05:59:04.206Z,76.45
2019-05-06T05:59:34.292Z,76.43
2019-05-06T06:00:05.222Z,76.64
2019-05-06T06:00:34.263Z,77.00
2019-05-06T06:01:05.221Z,77.23
2019-05-06T06:01:34.264Z,76.59
2019-05-06T06:02:05.221Z,76.56
2019-05-06T06:02:34.265Z,75.92
2019-05-06T06:03:07.138Z,75.50
2019-05-06T06:03:34.291Z,75.76
2019-05-06T06:04:04.208Z,76.19
2019-05-06T06:04:50.633Z,75.86
2019-05-06T06:05:05.247Z,75.72
2019-05-06T06:05:34.256Z,75.91
2019-05-06T06:06:04.257Z,75.43
2019-05-06T06:06:34.286Z,75.61
2019-05-06T06:07:04.204Z,75.62
2019-05-06T06:07:34.263Z,75.50
2019-05-06T06:08:04.719Z,75.30
2019-05-06T06:08:37.055Z,75.43
2019-05-06T06:09:04.216Z,75.51
2019-05-06T06:09:34.267Z,75.79
2019-05-06T06:10:04.220Z,75.71
2019-05-06T06:10:34.270Z,75.11
2019-05-06T06:11:05.274Z,74.65
2019-05-06T06:11:34.267Z,75.17
2019-05-06T06:12:04.246Z,75.60
2019-05-06T06:12:34.266Z,75.63
2019-05-06T06:13:04.219Z,75.71
2019-05-06T06:13:34.268Z,75.45
2019-05-06T06:14:04.227Z,74.50
2019-05-06T06:14:34.267Z,75.00
2019-05-06T06:15:07.353Z,74.89
2019-05-06T06:15:34.265Z,74.98
2019-05-06T06:16:04.242Z,74.84
2019-05-06T06:16:34.267Z,75.46
2019-05-06T06:17:04.203Z,75.27
2019-05-06T06:17:34.261Z,75.15
2019-05-06T06:18:04.235Z,74.89
2019-05-06T06:18:34.263Z,75.05
2019-05-06T06:19:04.215Z,75.28
2019-05-06T06:19:34.268Z,75.81
2019-05-06T06:20:04.205Z,76.02
2019-05-06T06:20:34.289Z,75.61
2019-05-06T06:21:17.540Z,75.35
2019-05-06T06:21:34.323Z,75.28
2019-05-06T06:22:04.217Z,74.62
2019-05-06T06:22:34.277Z,74.62
2019-05-06T06:23:04.211Z,74.65
2019-05-06T06:23:34.277Z,74.55
2019-05-06T06:24:04.225Z,75.15
2019-05-06T06:24:34.304Z,74.78
2019-05-06T06:25:05.235Z,74.48
2019-05-06T06:25:37.326Z,74.84
2019-05-06T06:26:05.231Z,75.35
2019-05-06T06:26:34.341Z,75.50
2019-05-06T06:27:04.215Z,75.45